Terminal Aerodrome Forecast
Issued by NWS

Home | Current Version | Previous Version | Text Only | Print | Product List | Glossary On
Versions: 1 2 3 4 5 6 7 8 9 10 11 12
000
FTUS42 KGSP 210529
TAFAND
TAF
KAND 210529Z 2106/2206 00000KT P6SM FEW250
     FM211100 VRB02KT 6SM BR FEW120
     FM211500 22004KT P6SM FEW250
     FM220500 00000KT P6SM FEW250=

USA.gov is the U.S. government's official web portal to all federal, state and local government web resources and services.